Time;durP1;ratioP1;P1;durP2;ratioP2;P2;SDS_P1;SDS_P2;PMS_P1;PMS_P2;Temp;Humidity;BMP_temperature;BMP_pressure;BME280_temperature;BME280_humidity;BME280_pressure;Samples;Min_cycle;Max_cycle;Signal;HPM_P1;HPM_P2
2022/09/20 00:01:57;;;;;;;1.30;0.52;;;;;;;12.20;100.00;97658.19;5112673;28;20479;-82
2022/09/20 00:04:23;;;;;;;0.60;0.60;;;;;;;12.23;100.00;97672.25;5113237;28;20031;-81
2022/09/20 00:06:48;;;;;;;0.60;0.60;;;;;;;12.26;100.00;97673.84;5095205;28;20080;-81
2022/09/20 00:09:14;;;;;;;0.85;0.70;;;;;;;12.18;100.00;97669.00;5095512;28;20066;-82
2022/09/20 00:11:39;;;;;;;3.65;0.90;;;;;;;12.06;100.00;97656.38;5112366;28;20026;-82
2022/09/20 00:14:09;;;;;;;0.60;0.60;;;;;;;11.99;100.00;97657.78;5112999;28;20112;-82
2022/09/20 00:16:38;;;;;;;0.82;0.65;;;;;;;12.05;100.00;97675.28;5095396;28;20419;-81
2022/09/20 00:19:05;;;;;;;0.80;0.73;;;;;;;12.08;100.00;97683.13;5112258;28;20084;-82
2022/09/20 00:21:32;;;;;;;0.90;0.80;;;;;;;11.93;100.00;97685.00;5094749;28;20124;-82
2022/09/20 00:23:58;;;;;;;1.23;0.80;;;;;;;11.81;100.00;97685.78;5112348;28;20058;-83
2022/09/20 00:26:25;;;;;;;1.77;1.10;;;;;;;11.72;100.00;97681.84;5112001;28;20372;-82
2022/09/20 00:28:50;;;;;;;2.97;1.90;;;;;;;11.64;100.00;97685.97;5111492;28;20027;-81
2022/09/20 00:31:17;;;;;;;3.05;1.88;;;;;;;11.41;100.00;97677.56;5111643;28;20505;-82
2022/09/20 00:36:31;;;;;;;2.83;1.70;;;;;;;11.36;100.00;97708.28;5064238;28;20384;-82
2022/09/20 00:38:58;;;;;;;5.97;2.92;;;;;;;11.25;100.00;97706.28;5095337;28;20023;-82
2022/09/20 00:41:43;;;;;;;3.72;2.10;;;;;;;11.16;100.00;97714.88;5094837;28;20035;-82
2022/09/20 00:44:51;;;;;;;1.92;1.20;;;;;;;11.08;100.00;97718.97;5112149;28;20165;-81
2022/09/20 00:47:29;;;;;;;1.77;1.15;;;;;;;10.95;100.00;97716.16;5089958;28;20112;-82
2022/09/20 00:50:20;;;;;;;1.00;0.90;;;;;;;11.00;100.00;97730.16;5111483;28;21595;-81
2022/09/20 00:52:47;;;;;;;0.73;0.70;;;;;;;10.93;100.00;97727.94;5096787;28;20055;-82
2022/09/20 00:55:14;;;;;;;0.75;0.70;;;;;;;10.78;100.00;97725.22;5094539;28;20047;-82
2022/09/20 00:57:41;;;;;;;0.60;0.60;;;;;;;10.80;100.00;97735.81;5111347;28;20035;-81
2022/09/20 01:00:09;;;;;;;3.58;0.93;;;;;;;10.75;100.00;97736.13;5094834;28;20028;-81
2022/09/20 01:02:40;;;;;;;1.92;1.00;;;;;;;10.76;100.00;97743.19;5094787;28;20423;-80
2022/09/20 01:05:06;;;;;;;0.95;0.80;;;;;;;10.69;100.00;97741.84;5111685;28;20479;-83
2022/09/20 01:07:33;;;;;;;1.38;0.80;;;;;;;10.60;100.00;97730.81;5112208;28;20023;-82
2022/09/20 01:09:58;;;;;;;0.95;0.68;;;;;;;10.60;100.00;97736.16;5111624;28;20096;-82
2022/09/20 01:12:27;;;;;;;1.05;0.80;;;;;;;10.66;100.00;97749.19;5094193;28;20032;-82
2022/09/20 01:14:53;;;;;;;1.00;0.90;;;;;;;10.50;100.00;97740.31;5110768;28;20031;-82
2022/09/20 01:17:22;;;;;;;1.83;1.02;;;;;;;10.45;100.00;97747.75;5110910;28;20032;-82
2022/09/20 01:20:07;;;;;;;4.78;1.75;;;;;;;10.43;100.00;97760.38;5094253;28;20039;-82
2022/09/20 01:22:42;;;;;;;2.80;1.77;;;;;;;10.31;100.00;97757.44;5112059;28;20111;-81
2022/09/20 01:25:15;;;;;;;1.58;1.05;;;;;;;10.25;100.00;97751.56;5133276;28;20449;-81
2022/09/20 01:27:51;;;;;;;1.83;1.20;;;;;;;10.23;100.00;97762.38;5097270;28;20122;-81
2022/09/20 01:30:22;;;;;;;2.10;1.48;;;;;;;10.20;100.00;97754.53;5114546;28;20039;-80
2022/09/20 01:33:01;;;;;;;1.13;1.02;;;;;;;10.07;100.00;97752.59;5097487;28;20503;-83
2022/09/20 01:35:27;;;;;;;1.55;1.10;;;;;;;9.97;100.00;97762.94;5133534;28;20520;-81
2022/09/20 01:38:34;;;;;;;1.98;1.42;;;;;;;9.88;100.00;97760.78;5115055;28;20478;-81
2022/09/20 01:41:28;;;;;;;1.33;1.08;;;;;;;9.59;100.00;97741.03;5132797;28;20074;-81
2022/09/20 01:44:10;;;;;;;1.65;1.27;;;;;;;9.38;100.00;97746.69;5096716;28;20039;-81
2022/09/20 01:46:36;;;;;;;1.40;1.15;;;;;;;9.29;100.00;97758.69;5111539;28;20471;-81
2022/09/20 01:49:38;;;;;;;1.02;0.82;;;;;;;9.49;100.00;97795.88;5114866;28;20054;-81
2022/09/20 01:52:41;;;;;;;1.55;1.35;;;;;;;9.45;100.00;97790.78;5114992;28;20065;-81
2022/09/20 01:55:52;;;;;;;1.42;1.15;;;;;;;9.36;100.00;97788.59;5113825;28;20565;-81
2022/09/20 01:58:36;;;;;;;1.38;1.27;;;;;;;9.32;100.00;97795.06;5114459;28;20486;-82
2022/09/20 02:01:16;;;;;;;1.95;1.10;;;;;;;9.44;100.00;97800.63;5114140;28;20031;-80
2022/09/20 02:03:51;;;;;;;1.52;1.23;;;;;;;9.47;100.00;97805.78;5113828;28;20088;-81
2022/09/20 02:06:30;;;;;;;1.60;1.30;;;;;;;9.41;100.00;97787.44;5133070;28;20019;-81
2022/09/20 02:09:11;;;;;;;1.83;1.42;;;;;;;9.38;100.00;97790.28;5113991;28;20027;-81
2022/09/20 02:11:48;;;;;;;1.30;1.05;;;;;;;9.44;100.00;97799.75;5114222;28;20122;-82
2022/09/20 02:14:31;;;;;;;3.45;1.90;;;;;;;9.44;100.00;97795.28;5130192;28;20023;-81
2022/09/20 02:17:07;;;;;;;1.30;1.20;;;;;;;9.49;100.00;97797.69;5114499;28;20019;-83
2022/09/20 02:20:07;;;;;;;1.92;1.17;;;;;;;9.45;100.00;97791.63;5097899;28;20027;-82
2022/09/20 02:22:52;;;;;;;1.88;1.48;;;;;;;9.31;100.00;97786.19;5082986;27;20064;-81
2022/09/20 02:25:39;;;;;;;7.38;1.67;;;;;;;9.20;100.00;97797.41;5117892;27;20482;-82
2022/09/20 02:28:14;;;;;;;3.70;2.10;;;;;;;9.20;100.00;97807.22;5117931;27;20054;-81
2022/09/20 02:31:00;;;;;;;5.93;2.20;;;;;;;9.20;100.00;97807.22;5100928;27;20019;-81
2022/09/20 02:33:57;;;;;;;2.83;1.90;;;;;;;9.39;100.00;97818.66;5136858;27;20162;-82
2022/09/20 02:36:32;;;;;;;2.78;1.60;;;;;;;9.46;100.00;97819.22;5110391;27;20058;-82
2022/09/20 02:39:10;;;;;;;3.83;1.63;;;;;;;9.42;100.00;97806.94;5135793;27;20154;-82
2022/09/20 02:42:00;;;;;;;12.15;5.43;;;;;;;9.33;100.00;97794.97;5099568;27;20092;-81
2022/09/20 02:44:54;;;;;;;14.48;5.78;;;;;;;9.20;100.00;97785.88;5128267;27;20392;-81
2022/09/20 02:47:20;;;;;;;5.75;2.65;;;;;;;9.15;100.00;97794.13;5116776;27;20019;-81
2022/09/20 02:50:05;;;;;;;3.00;1.85;;;;;;;9.14;100.00;97797.75;5116661;27;20034;-82
2022/09/20 02:52:39;;;;;;;1.30;1.08;;;;;;;9.11;100.00;97805.91;5117397;27;20047;-82
2022/09/20 02:55:08;;;;;;;1.48;1.23;;;;;;;9.04;100.00;97799.19;5117167;27;20034;-80
2022/09/20 02:58:01;;;;;;;1.73;1.23;;;;;;;9.01;100.00;97801.97;5134676;27;20030;-82
2022/09/20 03:00:52;;;;;;;8.27;1.88;;;;;;;9.10;100.00;97822.00;5135858;27;20110;-82
2022/09/20 03:03:22;;;;;;;7.25;2.58;;;;;;;9.14;100.00;97826.22;5117121;27;20035;-81
2022/09/20 03:06:06;;;;;;;3.88;2.10;;;;;;;9.13;100.00;97824.53;5100754;27;20478;-82
2022/09/20 03:09:03;;;;;;;51.20;13.40;;;;;;;8.93;100.00;97814.00;5100541;27;20027;-76
2022/09/20 03:11:54;;;;;;;8.43;3.70;;;;;;;8.81;100.00;97814.63;5116572;27;20027;-81
2022/09/20 03:14:27;;;;;;;6.22;2.80;;;;;;;8.77;100.00;97827.25;5116987;27;20031;-81
2022/09/20 03:17:13;;;;;;;3.83;2.25;;;;;;;8.87;100.00;97841.84;5117465;27;20027;-81
2022/09/20 03:20:13;;;;;;;2.70;1.55;;;;;;;8.82;100.00;97841.22;5116829;27;20042;-81
2022/09/20 03:23:20;;;;;;;1.95;1.50;;;;;;;8.78;100.00;97847.66;5135580;27;20114;-81
2022/09/20 03:25:50;;;;;;;2.50;1.73;;;;;;;8.76;100.00;97848.66;5116945;27;20061;-81
2022/09/20 03:28:54;;;;;;;2.53;1.70;;;;;;;8.73;100.00;97855.03;5117196;27;20031;-80
2022/09/20 03:31:38;;;;;;;;;;;;;;;8.76;100.00;97860.19;5112292;27;20054;-80
2022/09/20 03:34:03;;;;;;;1.60;1.20;;;;;;;8.72;100.00;97853.28;5116979;27;19912;-81
2022/09/20 03:36:49;;;;;;;2.38;1.38;;;;;;;8.71;100.00;97852.41;5116199;27;20042;-81
2022/09/20 03:39:33;;;;;;;3.25;1.75;;;;;;;8.73;100.00;97860.34;5100439;27;20111;-82
2022/09/20 03:42:15;;;;;;;1.98;1.50;;;;;;;8.60;100.00;97865.44;5135157;27;20099;-84
2022/09/20 03:45:05;;;;;;;3.70;1.85;;;;;;;8.52;100.00;97867.59;5116601;27;20616;-80
2022/09/20 03:48:08;;;;;;;2.38;1.52;;;;;;;8.60;100.00;97886.75;5135264;27;20402;-80
2022/09/20 03:50:36;;;;;;;5.38;2.10;;;;;;;8.56;100.00;97878.97;5115159;27;20054;-80
2022/09/20 03:53:31;;;;;;;3.50;1.77;;;;;;;8.52;100.00;97882.75;5135890;27;20095;-82
2022/09/20 03:56:21;;;;;;;12.80;4.85;;;;;;;8.36;100.00;97866.63;5116770;27;20531;-82
2022/09/20 03:59:09;;;;;;;7.47;4.15;;;;;;;8.29;100.00;97885.63;5116858;27;20115;-82
2022/09/20 04:02:12;;;;;;;12.18;3.80;;;;;;;8.16;100.00;97888.84;5100026;27;20042;-82
2022/09/20 04:04:59;;;;;;;;;;;;;;;8.13;100.00;97898.78;5135470;27;20037;-81
2022/09/20 04:07:37;;;;;;;5.38;2.40;;;;;;;8.13;100.00;97904.09;5118948;27;20299;-83
2022/09/20 04:10:15;;;;;;;2.50;1.60;;;;;;;7.98;100.00;97892.34;5118941;27;20533;-83
2022/09/20 04:13:04;;;;;;;2.78;1.70;;;;;;;8.05;100.00;97896.47;5135843;27;20122;-82
2022/09/20 04:15:36;;;;;;;2.13;1.25;;;;;;;7.98;100.00;97897.69;5099930;27;20042;-83
2022/09/20 04:18:11;;;;;;;9.48;3.22;;;;;;;7.96;100.00;97909.34;5115821;27;20559;-80
2022/09/20 04:20:45;;;;;;;9.98;4.40;;;;;;;7.92;100.00;97915.75;5098432;27;20425;-81
2022/09/20 04:23:34;;;;;;;6.38;2.80;;;;;;;7.85;100.00;97909.81;5098439;27;20054;-81
2022/09/20 04:26:01;;;;;;;4.10;2.25;;;;;;;7.85;100.00;97916.94;5111179;27;20027;-82
2022/09/20 04:28:44;;;;;;;6.07;2.47;;;;;;;7.77;100.00;97917.31;5116201;27;20022;-80
2022/09/20 04:31:26;;;;;;;5.13;3.05;;;;;;;7.77;100.00;97938.59;5086082;27;20027;-81
2022/09/20 04:33:53;;;;;;;4.93;2.90;;;;;;;7.73;100.00;97934.34;5115688;27;20031;-81
2022/09/20 04:36:28;;;;;;;3.72;2.63;;;;;;;7.78;100.00;97943.00;5116327;27;20131;-80
2022/09/20 04:39:14;;;;;;;6.07;3.20;;;;;;;7.72;100.00;97945.91;5115075;27;20037;-81
2022/09/20 04:42:08;;;;;;;7.78;3.30;;;;;;;7.78;100.00;97964.31;5112498;27;20027;-80
2022/09/20 04:44:51;;;;;;;11.40;4.85;;;;;;;7.83;100.00;97962.31;5115838;27;20490;-82
2022/09/20 04:47:20;;;;;;;10.10;5.18;;;;;;;7.91;100.00;97968.13;5114817;27;20065;-79
2022/09/20 04:50:15;;;;;;;9.55;3.85;;;;;;;7.98;100.00;97972.25;5115732;27;20113;-81
2022/09/20 04:52:40;;;;;;;7.95;3.70;;;;;;;8.07;100.00;97973.66;5132750;27;20069;-83
2022/09/20 04:55:30;;;;;;;4.85;3.22;;;;;;;8.11;100.00;97978.78;5134223;27;20027;-81
2022/09/20 04:58:26;;;;;;;5.53;2.97;;;;;;;8.14;100.00;97986.63;5126954;27;20031;-81
2022/09/20 05:01:15;;;;;;;7.15;3.35;;;;;;;8.22;100.00;97982.72;5115143;27;20031;-81
2022/09/20 05:03:59;;;;;;;4.43;2.78;;;;;;;8.33;100.00;97983.16;5132978;27;20489;-81
2022/09/20 05:07:03;;;;;;;5.82;3.72;;;;;;;8.45;100.00;97979.94;5132707;27;20435;-79
2022/09/20 05:10:14;;;;;;;11.90;3.17;;;;;;;8.59;100.00;97985.47;5135086;27;20027;-82
2022/09/20 05:13:07;;;;;;;4.28;2.63;;;;;;;8.94;100.00;97984.66;5131152;28;20030;-81
2022/09/20 05:15:55;;;;;;;6.85;2.95;;;;;;;9.63;100.00;97998.97;5131440;28;20031;-81
2022/09/20 05:18:42;;;;;;;3.80;2.65;;;;;;;9.70;100.00;97952.31;5129584;28;20038;-81
2022/09/20 05:21:33;;;;;;;2.85;2.30;;;;;;;9.74;100.00;97953.03;5148810;27;20035;-81
2022/09/20 05:24:10;;;;;;;4.15;2.08;;;;;;;9.97;100.00;97957.13;5113973;28;20055;-82
2022/09/20 05:26:50;;;;;;;3.00;2.03;;;;;;;11.08;100.00;98008.94;5115129;28;20023;-83
2022/09/20 05:29:24;;;;;;;3.38;2.58;;;;;;;13.48;100.00;97994.97;5101043;28;20030;-80
2022/09/20 05:32:09;;;;;;;6.28;2.10;;;;;;;15.40;86.74;97884.28;5118071;28;20019;-80
2022/09/20 05:34:41;;;;;;;3.17;2.05;;;;;;;16.88;75.38;97817.56;5118184;28;20406;-80
2022/09/20 05:37:43;;;;;;;4.85;3.47;;;;;;;17.67;69.39;97748.59;5099474;28;20035;-83
2022/09/20 05:40:21;;;;;;;15.57;4.53;;;;;;;18.84;65.58;97728.91;5134895;28;20033;-81
2022/09/20 05:43:19;;;;;;;7.13;3.08;;;;;;;19.57;61.08;97684.03;5136031;28;20458;-81
2022/09/20 05:46:06;;;;;;;6.82;3.08;;;;;;;19.36;60.28;97631.78;5117157;28;20130;-82
2022/09/20 05:48:48;;;;;;;4.82;3.03;;;;;;;19.50;60.05;97622.38;5116465;28;20043;-82
2022/09/20 05:51:17;;;;;;;17.42;9.27;;;;;;;19.72;58.84;97627.44;5099830;28;20023;-83
2022/09/20 05:53:57;;;;;;;6.95;2.97;;;;;;;20.17;57.49;97616.59;5117084;28;20558;-81
2022/09/20 05:56:39;;;;;;;8.50;4.07;;;;;;;21.07;55.27;97618.16;5112612;27;20028;-81
2022/09/20 05:59:05;;;;;;;7.28;3.75;;;;;;;20.67;54.13;97587.06;5121146;27;20015;-82
2022/09/20 06:01:39;;;;;;;7.22;3.15;;;;;;;21.10;54.36;97587.13;5139260;27;20399;-82
2022/09/20 06:04:18;;;;;;;3.58;2.55;;;;;;;22.37;49.66;97569.81;5103823;27;20034;-81
2022/09/20 06:07:11;;;;;;;8.27;4.35;;;;;;;22.12;49.77;97558.00;5100952;27;20109;-81
2022/09/20 06:09:58;;;;;;;9.60;3.67;;;;;;;22.10;49.88;97560.03;5112397;27;20043;-81
2022/09/20 06:12:44;;;;;;;3.95;2.75;;;;;;;21.68;50.52;97534.69;5139679;27;20027;-83
2022/09/20 06:15:35;;;;;;;5.80;2.75;;;;;;;22.23;48.94;97533.16;5139395;27;20019;-82
2022/09/20 06:18:07;;;;;;;4.28;2.90;;;;;;;22.99;47.38;97539.19;5103876;27;20110;-80
2022/09/20 06:20:58;;;;;;;7.45;4.63;;;;;;;23.63;46.24;97538.19;5120027;27;20402;-82
2022/09/20 06:23:24;;;;;;;17.73;12.20;;;;;;;23.31;46.54;97510.13;5117512;27;20102;-81
2022/09/20 06:26:02;;;;;;;8.45;4.15;;;;;;;24.47;44.25;97520.16;5082422;28;20064;-82
2022/09/20 06:28:38;;;;;;;25.20;12.95;;;;;;;24.37;44.00;97517.66;5096022;27;20034;-81
2022/09/20 06:31:07;;;;;;;14.43;7.90;;;;;;;24.91;42.54;97496.56;5102497;27;20023;-81
2022/09/20 06:33:43;;;;;;;5.25;3.83;;;;;;;25.35;42.12;97505.66;5103391;27;20034;-81
2022/09/20 06:42:01;;;;;;;4.53;1.95;;;;;;;26.76;38.80;97484.19;5136905;27;20080;-81
2022/09/20 06:44:26;;;;;;;6.60;2.67;;;;;;;26.53;38.57;97475.31;5119195;27;20494;-81
2022/09/20 06:46:53;;;;;;;3.55;2.30;;;;;;;26.52;38.66;97465.38;5119174;27;20023;-82
2022/09/20 06:49:22;;;;;;;5.32;3.22;;;;;;;26.07;39.06;97453.72;5102174;27;20031;-82
2022/09/20 06:51:49;;;;;;;3.45;2.15;;;;;;;27.08;37.46;97466.28;5119508;27;20114;-82
2022/09/20 06:54:19;;;;;;;3.85;2.70;;;;;;;27.09;37.35;97457.84;5119422;27;20031;-83
2022/09/20 06:56:48;;;;;;;6.22;2.40;;;;;;;26.45;37.75;97448.00;5119938;27;20031;-82
2022/09/20 06:59:14;;;;;;;4.47;2.72;;;;;;;25.58;38.38;97439.84;5101827;27;20027;-82
2022/09/20 07:01:41;;;;;;;4.63;2.85;;;;;;;24.61;40.39;97432.66;5119214;27;20021;-82
2022/09/20 07:04:08;;;;;;;4.47;2.70;;;;;;;24.40;41.06;97426.19;5101168;27;20023;-82
2022/09/20 07:06:34;;;;;;;4.65;2.45;;;;;;;25.88;39.37;97452.44;5101836;27;20043;-82
2022/09/20 07:09:00;;;;;;;5.50;2.40;;;;;;;25.56;37.81;97421.91;5117326;27;20106;-81
2022/09/20 07:11:25;;;;;;;3.20;1.90;;;;;;;23.96;38.64;97415.94;5100212;27;20405;-76
2022/09/20 07:13:53;;;;;;;3.05;2.08;;;;;;;24.46;39.26;97436.38;5098746;27;20027;-75
2022/09/20 07:16:19;;;;;;;12.52;2.63;;;;;;;24.98;38.44;97433.72;5098221;27;20482;-75
2022/09/20 07:18:45;;;;;;;4.32;1.83;;;;;;;25.40;37.26;97444.84;5100683;27;20035;-82
2022/09/20 07:21:13;;;;;;;2.65;1.50;;;;;;;24.78;37.93;97430.63;5101320;27;20031;-83
2022/09/20 07:23:39;;;;;;;2.22;1.58;;;;;;;25.72;36.88;97441.69;5101186;27;20050;-84
2022/09/20 07:26:05;;;;;;;2.20;1.42;;;;;;;26.40;35.65;97451.31;5136396;27;20394;-82
2022/09/20 07:28:33;;;;;;;9.68;2.08;;;;;;;26.15;36.30;97436.25;5117895;27;20039;-84
2022/09/20 07:30:59;;;;;;;3.78;0.90;;;;;;;25.96;34.07;97404.88;5101405;27;20087;-84
2022/09/20 07:33:24;;;;;;;3.22;1.50;;;;;;;26.04;34.36;97414.84;5100294;27;20027;-84
2022/09/20 07:35:53;;;;;;;1.05;0.95;;;;;;;26.68;34.58;97435.75;5100229;27;20406;-83
2022/09/20 07:38:20;;;;;;;3.20;1.05;;;;;;;26.64;33.87;97411.66;5101179;27;20042;-84
2022/09/20 07:40:45;;;;;;;5.75;1.70;;;;;;;27.33;33.53;97431.81;5101209;27;20087;-84
2022/09/20 07:43:11;;;;;;;8.77;1.80;;;;;;;28.14;31.93;97428.19;5117792;27;20068;-84
2022/09/20 07:45:38;;;;;;;2.88;1.23;;;;;;;27.19;32.31;97397.06;5101241;27;20031;-84
2022/09/20 07:48:08;;;;;;;6.55;2.13;;;;;;;27.33;33.16;97421.66;5117168;27;20023;-84
2022/09/20 07:50:34;;;;;;;3.40;2.05;;;;;;;29.11;30.52;97444.97;5144173;27;20394;-84
2022/09/20 07:52:59;;;;;;;2.05;1.70;;;;;;;26.20;33.07;97377.09;5117621;27;20019;-84
2022/09/20 07:55:25;;;;;;;3.45;1.35;;;;;;;24.07;36.28;97354.50;5117003;27;20031;-82
2022/09/20 07:57:51;;;;;;;1.90;1.25;;;;;;;24.18;36.60;97376.81;5116926;27;20069;-84
2022/09/20 08:00:17;;;;;;;5.20;1.77;;;;;;;22.89;38.67;97357.56;5100046;27;20098;-84
2022/09/20 08:02:44;;;;;;;3.50;1.23;;;;;;;22.29;39.18;97358.06;5100051;27;20027;-83
2022/09/20 08:05:10;;;;;;;4.15;1.23;;;;;;;21.09;39.64;97324.25;5117439;27;20105;-83
2022/09/20 08:07:35;;;;;;;2.45;0.70;;;;;;;21.15;39.95;97352.66;5117205;27;20477;-85
2022/09/20 08:10:02;;;;;;;4.97;1.40;;;;;;;22.31;38.83;97379.69;5116875;27;20052;-83
2022/09/20 08:12:28;;;;;;;6.13;0.90;;;;;;;22.89;37.47;97374.81;5117115;27;20031;-83
2022/09/20 08:14:53;;;;;;;2.53;0.90;;;;;;;22.10;39.01;97350.25;5100461;27;20034;-85
2022/09/20 08:17:19;;;;;;;44.15;25.90;;;;;;;21.16;40.74;97335.31;5100037;27;20031;-84
2022/09/20 08:19:45;;;;;;;2.58;0.63;;;;;;;21.71;39.27;97355.50;5118253;27;20034;-83
2022/09/20 08:22:11;;;;;;;3.58;1.75;;;;;;;23.34;37.59;97392.38;5100319;27;20027;-84
2022/09/20 08:24:38;;;;;;;1.20;0.70;;;;;;;24.57;35.55;97411.34;5099054;27;20043;-84
2022/09/20 08:27:03;;;;;;;4.43;0.88;;;;;;;26.87;32.16;97421.38;5100153;27;20019;-84
2022/09/20 08:29:29;;;;;;;3.95;0.85;;;;;;;26.97;31.60;97400.94;5115751;27;20030;-83
2022/09/20 08:31:57;;;;;;;17.92;10.90;;;;;;;28.32;30.78;97425.66;5116399;27;20027;-83
2022/09/20 08:34:23;;;;;;;3.20;2.03;;;;;;;29.04;28.90;97387.13;5100102;27;20030;-84
2022/09/20 08:36:50;;;;;;;1.02;0.73;;;;;;;27.62;29.98;97359.25;5116722;27;20486;-84
2022/09/20 08:39:16;;;;;;;0.70;0.70;;;;;;;26.24;31.51;97329.00;5116384;27;20034;-84
2022/09/20 08:42:07;;;;;;;0.47;0.47;;;;;;;26.46;31.13;97350.91;5116195;27;20406;-84
2022/09/20 08:44:37;;;;;;;3.53;1.15;;;;;;;27.93;29.96;97373.31;5116599;27;20023;-83
2022/09/20 08:47:19;;;;;;;3.38;1.60;;;;;;;26.49;30.96;97329.41;5117527;27;20015;-83
2022/09/20 08:49:44;;;;;;;2.60;0.70;;;;;;;23.79;34.12;97288.66;5099235;27;20031;-83
2022/09/20 08:52:15;;;;;;;4.15;1.00;;;;;;;22.39;36.65;97295.19;5099003;27;20100;-83
2022/09/20 08:54:42;;;;;;;1.43;0.97;;;;;;;21.73;38.40;97303.56;5117012;27;20065;-85
2022/09/20 08:57:16;;;;;;;0.65;0.65;;;;;;;22.23;36.78;97309.69;5118527;27;20485;-85
2022/09/20 08:59:42;;;;;;;2.15;1.23;;;;;;;22.71;35.38;97316.91;5119245;28;20118;-83
2022/09/20 09:02:19;;;;;;;1.48;1.10;;;;;;;24.96;33.04;97351.75;5116059;28;20066;-83
2022/09/20 09:04:46;;;;;;;3.08;1.02;;;;;;;26.37;31.35;97364.78;5116559;28;20062;-83
2022/09/20 09:07:14;;;;;;;4.20;1.40;;;;;;;26.29;31.24;97329.28;5116951;27;20105;-84
2022/09/20 09:09:45;;;;;;;0.80;0.80;;;;;;;24.24;33.52;97280.38;5115926;28;20031;-84
2022/09/20 09:12:23;;;;;;;1.27;0.87;;;;;;;22.65;35.86;97280.28;5099839;28;20129;-85
2022/09/20 09:14:53;;;;;;;4.80;1.73;;;;;;;21.75;39.77;97280.59;5116808;28;20035;-83
2022/09/20 09:17:37;;;;;;;1.00;0.80;;;;;;;21.02;38.85;97271.47;5117384;28;20035;-82
2022/09/20 09:20:16;;;;;;;1.95;0.98;;;;;;;20.62;39.51;97269.50;5116810;28;20027;-84
2022/09/20 09:22:46;;;;;;;1.90;0.95;;;;;;;20.42;40.11;97271.63;5118192;28;20522;-84
2022/09/20 09:25:17;;;;;;;3.80;1.00;;;;;;;20.43;40.58;97275.19;5099720;28;20023;-85
2022/09/20 09:27:59;;;;;;;1.65;1.33;;;;;;;21.24;39.03;97303.53;5135242;28;20019;-85
2022/09/20 09:30:31;;;;;;;6.20;2.65;;;;;;;24.67;33.87;97340.81;5134704;28;20038;-85
2022/09/20 09:33:21;;;;;;;7.32;2.90;;;;;;;26.18;31.03;97337.19;5118973;27;20031;-83
2022/09/20 09:36:09;;;;;;;13.70;5.13;;;;;;;24.78;32.33;97293.81;5121372;27;20037;-84
2022/09/20 09:38:37;;;;;;;26.63;8.27;;;;;;;24.01;34.70;97289.66;5118030;27;20068;-85
2022/09/20 09:41:07;;;;;;;7.47;3.45;;;;;;;22.99;35.04;97260.84;5121353;27;20011;-84
2022/09/20 09:43:36;;;;;;;2.63;1.70;;;;;;;22.08;36.68;97254.22;5122376;27;20046;-84
2022/09/20 09:46:20;;;;;;;1.70;0.80;;;;;;;22.15;35.68;97261.50;5105723;27;20019;-83
2022/09/20 09:48:49;;;;;;;1.83;0.80;;;;;;;21.94;36.17;97250.31;5121734;27;20019;-84
2022/09/20 09:51:19;;;;;;;10.48;1.75;;;;;;;21.84;36.62;97255.03;5121387;27;20034;-84
2022/09/20 09:53:47;;;;;;;2.10;0.93;;;;;;;21.60;37.13;97255.06;5103919;27;20490;-85
2022/09/20 09:56:41;;;;;;;1.15;0.68;;;;;;;21.34;37.34;97241.66;5105181;27;20023;-85
2022/09/20 09:59:28;;;;;;;0.95;0.85;;;;;;;21.31;37.30;97244.72;5113675;27;20023;-85
2022/09/20 10:02:00;;;;;;;0.60;0.47;;;;;;;21.64;37.19;97256.44;5106089;27;20023;-85
2022/09/20 10:04:37;;;;;;;5.47;1.80;;;;;;;22.46;36.00;97267.03;5120601;27;20397;-85
2022/09/20 10:07:35;;;;;;;1.05;0.47;;;;;;;23.43;34.68;97287.56;5103911;27;20015;-85
2022/09/20 10:10:22;;;;;;;1.75;0.82;;;;;;;23.70;34.43;97271.47;5115571;27;20039;-85
2022/09/20 10:13:20;;;;;;;3.50;0.88;;;;;;;22.42;35.43;97240.31;5121249;27;20019;-85
2022/09/20 10:15:53;;;;;;;2.10;0.47;;;;;;;25.09;33.46;97302.66;5120309;27;20501;-86
2022/09/20 10:18:22;;;;;;;1.52;0.43;;;;;;;27.47;28.51;97304.44;5118370;27;20031;-85
2022/09/20 10:21:09;;;;;;;0.60;0.60;;;;;;;26.79;29.32;97277.91;5120298;27;20502;-85
2022/09/20 10:23:46;;;;;;;0.85;0.60;;;;;;;25.91;29.43;97242.84;5136193;27;20039;-85
2022/09/20 10:26:24;;;;;;;0.60;0.50;;;;;;;25.05;30.78;97246.59;5120622;27;20023;-84
2022/09/20 10:29:38;;;;;;;0.50;0.40;;;;;;;24.08;31.35;97209.47;5119611;27;20030;-85
2022/09/20 10:32:09;;;;;;;1.77;0.95;;;;;;;22.88;33.11;97201.25;5096110;28;20091;-84
2022/09/20 10:34:54;;;;;;;5.53;1.35;;;;;;;22.10;34.41;97200.38;5111535;27;20437;-83
2022/09/20 10:37:35;;;;;;;5.53;2.50;;;;;;;21.97;36.42;97211.81;5119558;27;20042;-84
2022/09/20 10:40:07;;;;;;;3.60;1.05;;;;;;;21.95;37.09;97232.94;5119888;27;20023;-84
2022/09/20 10:45:19;;;;;;;0.85;0.60;;;;;;;23.88;33.97;97278.50;5138442;27;20065;-85
2022/09/20 10:48:06;;;;;;;3.92;0.80;;;;;;;25.02;32.51;97289.94;5119669;27;20462;-85
2022/09/20 10:50:44;;;;;;;0.55;0.50;;;;;;;25.94;31.64;97290.94;5119403;27;20023;-85
2022/09/20 10:53:26;;;;;;;0.52;0.40;;;;;;;25.72;31.75;97274.50;5122434;27;20034;-85
2022/09/20 10:56:29;;;;;;;6.82;1.00;;;;;;;24.60;32.63;97231.28;5105187;27;20056;-85
2022/09/20 10:59:26;;;;;;;1.95;1.15;;;;;;;25.52;31.50;97264.41;5120438;27;20031;-84
2022/09/20 11:02:11;;;;;;;1.27;0.90;;;;;;;25.91;30.79;97264.78;5120253;27;20027;-85
2022/09/20 11:04:48;;;;;;;0.52;0.50;;;;;;;24.61;32.01;97221.19;5136763;27;21097;-86
2022/09/20 11:07:42;;;;;;;0.70;0.43;;;;;;;25.97;30.60;97258.50;5119903;27;20027;-85
2022/09/20 11:10:20;;;;;;;5.78;1.95;;;;;;;26.98;29.24;97263.44;5119689;27;20027;-85
2022/09/20 11:12:54;;;;;;;1.05;0.50;;;;;;;26.80;28.97;97246.66;5120108;27;20027;-85
2022/09/20 11:15:40;;;;;;;0.40;0.40;;;;;;;26.48;29.31;97228.97;5105171;27;20091;-85
2022/09/20 11:18:22;;;;;;;1.05;0.50;;;;;;;25.90;29.49;97200.06;5104782;27;20038;-85
2022/09/20 11:20:57;;;;;;;2.88;0.50;;;;;;;25.45;29.82;97187.63;5101349;28;20035;-82
2022/09/20 11:24:15;;;;;;;0.70;0.40;;;;;;;24.28;31.35;97166.88;5101808;27;20175;-83
2022/09/20 11:26:47;;;;;;;1.00;0.50;;;;;;;23.67;33.09;97172.66;5065594;27;20123;-83
2022/09/20 11:29:54;;;;;;;0.40;0.40;;;;;;;22.36;34.82;97165.56;5103407;27;20035;-82
2022/09/20 11:32:24;;;;;;;0.70;0.70;;;;;;;21.77;37.30;97164.19;5107180;27;20421;-83
2022/09/20 11:34:55;;;;;;;0.40;0.40;;;;;;;21.77;37.29;97175.09;5117814;27;20553;-83
2022/09/20 11:37:24;;;;;;;1.55;0.40;;;;;;;21.59;38.02;97172.53;5100995;27;20395;-83
2022/09/20 11:39:53;;;;;;;0.90;0.50;;;;;;;22.01;37.28;97201.44;5101074;27;20102;-82
2022/09/20 11:42:21;;;;;;;8.02;0.93;;;;;;;22.23;36.60;97191.66;5101935;27;20031;-82
2022/09/20 11:44:47;;;;;;;2.10;0.90;;;;;;;22.36;36.93;97205.59;5118518;27;20027;-82
2022/09/20 11:47:21;;;;;;;6.95;0.50;;;;;;;22.39;36.27;97202.50;5101208;27;20482;-82
2022/09/20 11:49:56;;;;;;;0.88;0.50;;;;;;;22.25;36.18;97192.31;5136785;27;20034;-81
2022/09/20 11:52:51;;;;;;;1.30;0.50;;;;;;;22.04;36.66;97193.78;5118181;27;20586;-83
2022/09/20 11:55:49;;;;;;;10.00;1.58;;;;;;;22.09;36.57;97195.94;5127893;27;20183;-82
2022/09/20 11:58:21;;;;;;;3.20;0.45;;;;;;;21.54;35.58;97155.88;5116996;27;20034;-82
2022/09/20 12:00:49;;;;;;;0.65;0.30;;;;;;;21.50;35.62;97161.88;5101663;27;20490;-82
2022/09/20 12:03:26;;;;;;;0.47;0.38;;;;;;;21.22;36.93;97157.81;5100420;27;20027;-82
2022/09/20 12:06:00;;;;;;;1.10;0.60;;;;;;;21.26;37.16;97170.88;5117764;27;20047;-81
2022/09/20 12:08:38;;;;;;;1.00;0.70;;;;;;;21.18;37.65;97172.75;5116844;27;20031;-82
2022/09/20 12:11:11;;;;;;;2.10;0.93;;;;;;;21.28;36.54;97173.44;5117509;27;20023;-81
2022/09/20 12:13:39;;;;;;;1.05;0.80;;;;;;;22.08;34.93;97186.09;5116948;27;20060;-81
2022/09/20 12:16:38;;;;;;;0.60;0.50;;;;;;;25.63;31.27;97251.03;5100703;27;20019;-81
2022/09/20 12:19:07;;;;;;;0.60;0.32;;;;;;;25.88;29.30;97210.34;5117274;27;20027;-80
2022/09/20 12:21:54;;;;;;;0.40;0.40;;;;;;;28.48;28.09;97259.25;5100537;27;20022;-81
2022/09/20 12:24:21;;;;;;;9.27;1.20;;;;;;;29.59;26.42;97250.59;5116894;27;20068;-80
2022/09/20 12:26:47;;;;;;;0.40;0.30;;;;;;;30.09;25.36;97234.97;5116306;27;20088;-81
2022/09/20 12:29:31;;;;;;;0.57;0.50;;;;;;;29.96;25.34;97201.97;5116582;27;20152;-83
2022/09/20 12:32:00;;;;;;;0.50;0.47;;;;;;;29.42;25.82;97188.78;5133082;27;20018;-82